Stations météo

réclame
Mon MeteoGroup
Pajares/Valgrande, Espagne (8031): Température de l'air & dewpoint: 12.12.2017 17:00:00 - 18.12.2017 17:00:00 (CET)Pajares/Valgrande, Espagne (8031): Vitesse du vent & gusts: 12.12.2017 17:00:00 - 18.12.2017 17:00:00 (CET)Pajares/Valgrande, Espagne (8031): Direction du vent: 12.12.2017 17:00:00 - 18.12.2017 17:00:00 (CET)Pajares/Valgrande, Espagne (8031): Quantités de précipitations: 12.12.2017 17:00:00 - 18.12.2017 17:00:00 (CET)
Date & Time tt [°C] td [°C] ff [km/h] ff [knt] fx [km/h] fx [knt] dd rr [mm]
18.12.2017 17:00:00 4,3 3,4 9 5 22 12 NW 3,5
18.12.2017 16:00:00 4,3 3,4 9 5 18 10 NW 1,5
18.12.2017 15:00:00 4,1 3,2 8 4 18 10 NNW 0,5
18.12.2017 14:00:00 3,8 2,9 6 3 16 9 NNW 1,3
18.12.2017 13:00:00 2,9 1,9 8 5 15 8 NNW -
18.12.2017 12:00:00 1,5 0,0 5 3 16 9 NNW 0,2
18.12.2017 11:00:00 1,5 -1,0 9 5 16 8 NW 0,0
18.12.2017 10:00:00 1,9 -2,0 3 1 9 5 NNW 0,0
18.12.2017 09:00:00 2,0 -1,7 0 0 0 0 N 0,0
18.12.2017 08:00:00 1,3 -2,2 0 0 4 2 N 0,0
18.12.2017 07:00:00 1,4 -2,5 1 1 6 3 W -
18.12.2017 06:00:00 0,5 -3,9 0 0 0 0 W 0,0
18.12.2017 05:00:00 0,2 -5,4 0 0 0 0 N 0,0
18.12.2017 04:00:00 -0,7 -6,4 0 0 0 0 N 0,0
18.12.2017 03:00:00 -2,9 -8,6 0 0 0 0 SSW 0,0
18.12.2017 02:00:00 -2,8 -7,8 0 0 0 0 SSW 0,0
18.12.2017 01:00:00 -1,9 -6,4 0 0 0 0 SSW -
18.12.2017 00:00:00 -1,8 -5,7 0 0 0 0 WSW 0,0
17.12.2017 23:00:00 -2,6 -6,4 0 0 0 0 SSW 0,0
17.12.2017 22:00:00 -2,6 -6,4 0 0 0 0 N 0,0
17.12.2017 21:00:00 -1,1 -5,4 0 0 1 0 SSW 0,0
17.12.2017 20:00:00 -1,4 -4,8 0 0 0 0 SSW 0,0
17.12.2017 19:00:00 -2,9 -5,4 0 0 0 0 SSW -
17.12.2017 18:00:00 -3,5 -5,4 0 0 0 0 SSW 0,0
17.12.2017 17:00:00 -3,0 -4,5 0 0 0 0 N 0,0
17.12.2017 16:00:00 -2,5 -3,6 0 0 1 0 S 0,0
17.12.2017 15:00:00 -1,7 -2,5 0 0 0 0 SSE 0,0
17.12.2017 14:00:00 -1,7 -2,5 0 0 0 0 N 0,0
17.12.2017 13:00:00 -0,2 -1,0 0 0 0 0 N -
17.12.2017 12:00:00 - - - - - - - -
17.12.2017 11:00:00 -1,6 -2,5 0 0 0 0 N 0,4
17.12.2017 10:00:00 -1,8 -2,7 0 0 0 0 N 0,0
17.12.2017 09:00:00 -2,0 -2,7 0 0 0 0 W 0,0
17.12.2017 08:00:00 -2,0 -2,7 0 0 2 1 W 0,0
17.12.2017 07:00:00 -1,8 -2,7 0 0 0 0 N -
17.12.2017 06:00:00 -1,9 -2,7 0 0 3 2 N 0,0
17.12.2017 05:00:00 -1,9 -2,7 2 1 3 2 WNW 0,0
17.12.2017 04:00:00 -1,7 -2,5 2 1 4 2 WNW 0,3
17.12.2017 03:00:00 -1,7 -2,5 2 1 4 2 W 0,1
17.12.2017 02:00:00 -1,9 -2,7 0 0 5 3 W 1,1
17.12.2017 01:00:00 -2,0 -2,7 1 1 3 2 W -
17.12.2017 00:00:00 -1,6 -2,5 3 1 5 3 WNW 0,0
16.12.2017 23:00:00 -1,6 -2,5 3 2 7 4 WNW 0,5
16.12.2017 22:00:00 -1,7 -2,5 2 1 6 4 WNW 0,2
16.12.2017 21:00:00 -1,8 -2,7 2 1 8 5 WNW 0,0
16.12.2017 20:00:00 -1,9 -2,7 4 2 8 4 WNW 0,6
16.12.2017 19:00:00 -1,7 -2,5 4 2 11 6 WNW -
16.12.2017 18:00:00 -1,8 -2,7 5 3 10 5 WNW 0,2
16.12.2017 17:00:00 -1,8 -2,7 5 3 16 9 WNW 1,2
16.12.2017 16:00:00 -1,6 -2,5 5 3 10 6 WNW 0,9
16.12.2017 15:00:00 -1,2 -2,0 5 3 10 6 NW 0,2
16.12.2017 14:00:00 -1,6 -2,5 6 3 15 8 NW 1,2
16.12.2017 13:00:00 -1,4 -2,2 7 4 18 10 WNW -
16.12.2017 12:00:00 -1,4 -2,2 6 4 18 10 WNW 0,2
16.12.2017 11:00:00 -1,8 -2,7 6 3 13 7 WNW 0,0
16.12.2017 10:00:00 -1,6 -2,5 9 5 18 10 WNW 0,0
16.12.2017 09:00:00 -1,9 -2,7 12 6 21 12 WNW 1,4
16.12.2017 08:00:00 -1,3 -2,2 10 6 23 13 WNW 0,4
16.12.2017 07:00:00 -1,4 -2,2 11 6 28 15 WNW -
16.12.2017 06:00:00 -1,4 -2,2 15 8 31 17 NW 0,9
16.12.2017 05:00:00 -1,3 -2,2 16 9 37 20 WNW 0,5
16.12.2017 04:00:00 -1,5 -2,5 14 7 33 18 WNW 0,8
16.12.2017 03:00:00 -1,5 -2,5 14 8 27 15 WNW 1,2
16.12.2017 02:00:00 -1,6 -2,5 12 7 31 17 NW 0,1
16.12.2017 01:00:00 -1,8 -2,7 16 8 28 15 WNW -
16.12.2017 00:00:00 -1,7 -2,5 17 9 41 22 NW 2,0
15.12.2017 23:00:00 -1,0 -2,0 14 8 42 23 NW 0,7
15.12.2017 22:00:00 -1,3 -2,2 16 9 35 19 WNW 2,2
15.12.2017 21:00:00 -1,2 -2,0 15 8 39 21 NW 0,6
15.12.2017 20:00:00 -1,1 -2,0 17 9 39 21 NW 0,9
15.12.2017 19:00:00 -1,0 -2,0 19 10 40 21 NW -
15.12.2017 18:00:00 - - - - - - - -
15.12.2017 17:00:00 -1,1 -2,0 13 7 32 17 NW 0,1
15.12.2017 16:00:00 -1,1 -2,0 13 7 34 18 NW 0,0
15.12.2017 15:00:00 -1,1 -2,0 14 7 32 17 NW 0,1
15.12.2017 14:00:00 -1,2 -2,0 14 8 36 19 NW 0,3
15.12.2017 13:00:00 -1,4 -2,2 16 9 32 18 NW -
15.12.2017 12:00:00 -1,5 -2,5 16 8 39 21 NW 0,0
15.12.2017 11:00:00 -1,3 -2,2 17 9 36 19 NW 0,2
15.12.2017 10:00:00 -1,4 -2,5 16 9 36 19 NW 1,4
15.12.2017 09:00:00 -1,4 -2,5 11 6 21 11 NW 2,4
15.12.2017 08:00:00 -1,2 -2,2 8 4 27 14 NW 2,1
15.12.2017 07:00:00 -1,0 -2,2 16 8 37 20 NW -
15.12.2017 06:00:00 1,4 -3,3 9 5 34 19 NW 0,0
15.12.2017 05:00:00 1,0 -3,9 8 4 19 11 NW 0,0
15.12.2017 04:00:00 1,9 -4,5 11 6 24 13 NNW 0,0
15.12.2017 03:00:00 1,1 -4,2 7 4 17 9 N 0,0
15.12.2017 02:00:00 1,5 -2,7 4 2 11 6 NW 0,0
15.12.2017 01:00:00 1,3 -3,3 7 4 16 8 NW -
15.12.2017 00:00:00 1,0 -3,9 3 2 23 13 WNW 0,0
14.12.2017 23:00:00 1,7 -2,2 6 3 16 9 WNW 0,0
14.12.2017 22:00:00 3,0 -1,0 4 2 16 9 NNW 0,0
14.12.2017 21:00:00 3,6 -1,0 2 1 25 13 N 0,0
14.12.2017 20:00:00 4,3 1,1 3 1 11 6 W 0,0
14.12.2017 19:00:00 5,1 3,0 4 2 23 12 NW -
14.12.2017 18:00:00 6,0 1,7 9 5 23 12 SSW 0,0
14.12.2017 17:00:00 5,9 3,4 3 2 15 8 W 0,0
14.12.2017 16:00:00 6,4 3,2 1 1 16 9 W 0,0
14.12.2017 15:00:00 6,6 2,5 0 0 29 15 S 0,0
14.12.2017 14:00:00 6,9 1,9 12 6 33 18 SSW 0,0
14.12.2017 13:00:00 6,6 2,7 9 5 24 13 S -
14.12.2017 12:00:00 6,2 3,8 2 1 14 8 WSW 0,0
14.12.2017 11:00:00 5,0 3,4 0 0 8 4 N 0,1
14.12.2017 10:00:00 4,0 2,1 0 0 15 8 S 0,2
14.12.2017 09:00:00 4,9 3,6 8 5 18 10 S 0,5
14.12.2017 08:00:00 4,3 3,2 1 1 17 9 ESE 1,6
14.12.2017 07:00:00 4,6 3,4 6 3 16 9 NW -
14.12.2017 06:00:00 5,1 3,0 1 1 31 17 E 1,9
14.12.2017 05:00:00 6,4 3,2 10 6 24 13 S 0,2
14.12.2017 04:00:00 5,3 3,2 3 1 12 6 SSW 0,8
14.12.2017 03:00:00 5,3 3,2 7 4 18 10 S 0,7
14.12.2017 02:00:00 4,7 2,5 1 1 10 5 S 0,7
14.12.2017 01:00:00 6,2 3,2 3 1 16 8 S -
14.12.2017 00:00:00 7,1 3,4 4 2 26 14 SW 0,0
13.12.2017 23:00:00 7,4 2,5 8 5 30 16 SSW 0,0
13.12.2017 22:00:00 7,7 2,5 11 6 31 17 S 0,0
13.12.2017 21:00:00 7,2 2,5 5 3 29 16 E 0,0
13.12.2017 20:00:00 7,3 2,9 8 5 24 13 S 0,0
13.12.2017 19:00:00 7,1 2,5 8 5 29 16 S -
13.12.2017 18:00:00 7,1 2,5 6 4 36 20 SW 0,0
13.12.2017 17:00:00 7,0 2,1 22 12 42 23 SSW 0,0
13.12.2017 16:00:00 7,3 1,5 12 7 36 20 SW 0,0
13.12.2017 15:00:00 7,9 0,4 8 4 39 21 SW 0,0
13.12.2017 14:00:00 7,1 0,2 0 0 21 12 S 0,0
13.12.2017 13:00:00 4,9 -1,7 4 2 21 12 NNE -
13.12.2017 12:00:00 7,1 -1,7 8 4 24 13 ESE 0,0
13.12.2017 11:00:00 4,2 -2,5 6 3 19 10 NNE 0,0
13.12.2017 10:00:00 4,8 -2,0 9 5 28 15 S 0,0
13.12.2017 09:00:00 4,3 -1,7 12 7 29 16 S 0,0
13.12.2017 08:00:00 4,1 -0,5 6 3 24 13 SSW 0,0
13.12.2017 07:00:00 4,4 0,6 5 3 38 20 S -
13.12.2017 06:00:00 4,5 0,2 13 7 33 18 SW 0,0
13.12.2017 05:00:00 3,1 1,7 11 6 27 15 S 0,0
13.12.2017 04:00:00 1,6 0,6 1 1 14 8 NE 0,0
13.12.2017 03:00:00 0,7 -0,5 0 0 9 5 NNE 0,0
13.12.2017 02:00:00 1,0 -0,5 1 1 9 5 SE 0,0
13.12.2017 01:00:00 1,9 -0,5 7 4 11 6 S -
13.12.2017 00:00:00 0,7 -2,0 4 2 6 4 S 0,0
12.12.2017 23:00:00 -0,5 -2,7 4 2 10 5 S 0,0
12.12.2017 22:00:00 -1,8 -3,6 8 4 12 7 S 0,0
12.12.2017 21:00:00 -1,6 -2,5 8 4 13 7 S 0,0
12.12.2017 20:00:00 -2,6 -3,6 6 3 8 4 S 0,0
12.12.2017 19:00:00 -3,4 -4,2 5 3 6 3 S -
12.12.2017 18:00:00 -1,7 -2,5 0 0 0 0 N 0,0
12.12.2017 17:00:00 -0,7 -1,4 0 0 0 0 N 0,0

tt = Température de l'air
td = dewpoint
ff = Vitesse du vent
fx = gusts
dd = Direction du vent
rr = Quantités de précipitations

stations d'obs. à proximité